createdAt,value
2018-06-11T00:01:30.276Z,77.61
2018-06-11T00:03:58.650Z,77.17
2018-06-11T00:06:27.003Z,77.74
2018-06-11T00:08:55.381Z,78.57
2018-06-11T00:11:23.828Z,77.79
2018-06-11T00:13:52.235Z,76.98
2018-06-11T00:16:20.583Z,77.22
2018-06-11T00:18:48.992Z,77.58
2018-06-11T00:21:17.390Z,76.46
2018-06-11T00:23:45.769Z,77.39
2018-06-11T00:26:14.199Z,76.75
2018-06-11T00:28:42.679Z,77.73
2018-06-11T00:31:11.100Z,77.35
2018-06-11T00:33:39.547Z,77.82
2018-06-11T00:36:08.015Z,78.24
2018-06-11T00:38:36.411Z,77.25
2018-06-11T00:41:04.851Z,76.74
2018-06-11T00:43:33.328Z,78.00
2018-06-11T00:46:01.782Z,77.57
2018-06-11T00:48:30.233Z,77.45
2018-06-11T00:50:58.758Z,78.26
2018-06-11T00:53:27.207Z,78.08
2018-06-11T00:56:07.755Z,77.44
2018-06-11T00:58:36.257Z,77.70
2018-06-11T01:01:05.132Z,77.87
2018-06-11T01:03:39.252Z,78.33
2018-06-11T01:06:08.183Z,77.41
2018-06-11T01:08:36.603Z,78.21
2018-06-11T01:11:05.170Z,77.77
2018-06-11T01:13:33.588Z,76.97
2018-06-11T01:16:02.028Z,77.71
2018-06-11T01:18:30.512Z,77.94
2018-06-11T01:20:58.970Z,77.84
2018-06-11T01:23:27.447Z,78.29
2018-06-11T01:25:56.011Z,77.54
2018-06-11T01:28:24.474Z,77.45
2018-06-11T01:30:52.894Z,77.61
2018-06-11T01:33:21.297Z,77.90
2018-06-11T01:35:49.709Z,77.50
2018-06-11T01:38:18.143Z,77.80
2018-06-11T01:40:46.580Z,79.02
2018-06-11T01:43:15.018Z,77.94
2018-06-11T01:45:43.492Z,77.91
2018-06-11T01:48:12.022Z,78.08
2018-06-11T01:50:40.462Z,78.03
2018-06-11T01:53:08.877Z,77.99
2018-06-11T01:55:37.337Z,78.93
2018-06-11T01:58:05.802Z,77.78
2018-06-11T02:00:34.225Z,78.35
2018-06-11T02:03:02.668Z,78.46
2018-06-11T02:05:31.082Z,77.85
2018-06-11T02:07:59.560Z,77.68
2018-06-11T02:10:28.489Z,77.51
2018-06-11T02:12:56.897Z,78.17
2018-06-11T02:15:25.278Z,77.43
2018-06-11T02:17:53.635Z,77.99
2018-06-11T02:20:22.076Z,77.73
2018-06-11T02:22:50.567Z,77.88
2018-06-11T02:25:18.991Z,78.92
2018-06-11T02:27:47.456Z,78.16
2018-06-11T02:30:15.859Z,78.00
2018-06-11T02:32:44.293Z,78.52
2018-06-11T02:35:12.683Z,78.75
2018-06-11T02:37:41.092Z,77.85
2018-06-11T02:40:09.477Z,77.75
2018-06-11T02:42:37.863Z,77.58
2018-06-11T02:45:06.575Z,77.54
2018-06-11T02:47:34.994Z,78.84
2018-06-11T02:50:03.405Z,79.59
2018-06-11T02:52:31.958Z,78.62
2018-06-11T02:55:00.365Z,78.97
2018-06-11T02:57:28.800Z,78.59
2018-06-11T02:59:57.261Z,78.66
2018-06-11T03:02:25.726Z,79.18
2018-06-11T03:04:54.120Z,78.55
2018-06-11T03:07:22.617Z,78.25
2018-06-11T03:09:51.046Z,79.07
2018-06-11T03:12:19.470Z,78.45
2018-06-11T03:14:47.947Z,78.77
2018-06-11T03:17:16.413Z,78.07
2018-06-11T03:19:44.777Z,77.70
2018-06-11T03:22:13.156Z,78.57
2018-06-11T03:24:41.580Z,78.20
2018-06-11T03:27:10.005Z,78.65
2018-06-11T03:29:38.393Z,78.68
2018-06-11T03:32:06.828Z,78.33
2018-06-11T03:34:35.325Z,78.11
2018-06-11T03:37:03.736Z,78.85
2018-06-11T03:39:32.163Z,78.37
2018-06-11T03:42:00.634Z,78.44
2018-06-11T03:44:29.124Z,77.96
2018-06-11T03:48:26.716Z,78.57
2018-06-11T03:50:55.139Z,77.89
2018-06-11T03:53:23.576Z,78.29
2018-06-11T03:55:52.014Z,78.08
2018-06-11T03:58:20.485Z,77.69
2018-06-11T04:00:48.996Z,77.44
2018-06-11T04:03:17.404Z,78.38
2018-06-11T04:05:45.825Z,78.24
2018-06-11T04:08:14.398Z,78.85
2018-06-11T04:10:42.842Z,79.34
2018-06-11T04:13:11.372Z,78.25
2018-06-11T04:15:40.796Z,78.85
2018-06-11T04:18:09.301Z,78.62
2018-06-11T04:20:37.827Z,78.88
2018-06-11T04:23:06.244Z,78.39
2018-06-11T04:25:34.691Z,78.73
2018-06-11T04:28:03.145Z,78.37
2018-06-11T04:30:32.465Z,78.76
2018-06-11T04:33:00.867Z,78.34
2018-06-11T04:35:29.333Z,78.34
2018-06-11T04:37:57.920Z,77.28
2018-06-11T04:40:26.387Z,78.17
2018-06-11T04:42:54.783Z,79.06
2018-06-11T04:45:23.248Z,78.19
2018-06-11T04:47:51.655Z,78.70
2018-06-11T04:50:20.084Z,78.35
2018-06-11T04:52:48.508Z,78.62
2018-06-11T04:55:16.988Z,77.84
2018-06-11T04:57:45.465Z,78.21
2018-06-11T05:00:13.945Z,78.41
2018-06-11T05:02:42.323Z,77.84
2018-06-11T05:05:10.808Z,77.77
2018-06-11T05:07:39.181Z,77.46
2018-06-11T05:10:07.597Z,77.28
2018-06-11T05:12:36.008Z,77.44
2018-06-11T05:15:04.477Z,76.98
2018-06-11T05:17:32.876Z,77.53
2018-06-11T05:20:01.312Z,77.35
2018-06-11T05:22:29.764Z,76.97
2018-06-11T05:24:58.188Z,76.34
2018-06-11T05:27:26.622Z,77.13
2018-06-11T05:29:54.983Z,76.74
2018-06-11T05:32:23.435Z,76.58
2018-06-11T05:34:51.928Z,76.93
2018-06-11T05:37:20.344Z,76.11
2018-06-11T05:39:48.733Z,77.07
2018-06-11T05:42:17.104Z,76.49
2018-06-11T05:44:45.954Z,76.80
2018-06-11T05:47:14.391Z,76.62
2018-06-11T05:49:42.810Z,76.92
2018-06-11T05:52:11.240Z,76.70
2018-06-11T05:54:39.653Z,76.26
2018-06-11T05:57:08.065Z,76.56
2018-06-11T05:59:36.493Z,77.01
2018-06-11T06:02:04.957Z,76.33
2018-06-11T06:04:33.369Z,76.92
2018-06-11T06:07:01.915Z,76.59
2018-06-11T06:09:30.349Z,76.85
2018-06-11T06:11:58.783Z,76.33
2018-06-11T06:14:27.231Z,76.35
2018-06-11T06:16:55.639Z,76.18
2018-06-11T06:19:24.019Z,76.43
2018-06-11T06:21:52.372Z,75.99
2018-06-11T06:24:20.751Z,75.89
2018-06-11T06:26:49.384Z,76.23
2018-06-11T06:29:17.791Z,76.11
2018-06-11T06:31:46.201Z,75.61
2018-06-11T06:34:14.690Z,75.37
2018-06-11T06:36:43.084Z,75.40
2018-06-11T06:39:12.611Z,75.84
2018-06-11T06:41:41.010Z,74.30
2018-06-11T06:44:09.471Z,75.04
2018-06-11T06:46:37.898Z,74.55
2018-06-11T06:49:06.276Z,75.14
2018-06-11T06:51:34.729Z,74.00
2018-06-11T06:54:03.168Z,74.09
2018-06-11T06:56:31.536Z,73.91
2018-06-11T06:58:59.904Z,73.53
2018-06-11T07:01:28.250Z,73.55
2018-06-11T07:03:56.740Z,72.31
2018-06-11T07:06:25.178Z,73.15
2018-06-11T07:08:53.596Z,73.33
2018-06-11T07:11:21.978Z,72.89
2018-06-11T07:13:50.376Z,71.64
2018-06-11T07:16:18.805Z,71.80
2018-06-11T07:18:47.289Z,70.91
2018-06-11T07:21:15.661Z,70.50
2018-06-11T07:23:44.057Z,70.74
2018-06-11T07:26:12.580Z,69.25
2018-06-11T07:28:41.032Z,68.89
2018-06-11T07:31:09.515Z,69.15
2018-06-11T07:33:37.961Z,69.31
2018-06-11T07:36:06.372Z,68.80
2018-06-11T07:38:34.855Z,69.42
2018-06-11T07:41:03.287Z,67.96
2018-06-11T07:43:31.679Z,68.10
2018-06-11T07:46:00.072Z,67.76
2018-06-11T07:48:28.505Z,68.17
2018-06-11T07:50:56.936Z,68.03
2018-06-11T07:53:25.330Z,68.07
2018-06-11T07:55:53.736Z,69.52
2018-06-11T07:58:22.264Z,64.76
2018-06-11T08:00:50.589Z,68.38
2018-06-11T08:03:18.950Z,64.09
2018-06-11T08:05:47.355Z,63.96
2018-06-11T08:08:15.752Z,64.59
2018-06-11T08:10:44.132Z,62.43
2018-06-11T08:13:12.466Z,63.06
2018-06-11T08:15:40.890Z,64.30
2018-06-11T08:18:09.259Z,60.77
2018-06-11T08:20:37.641Z,60.15
2018-06-11T08:23:06.251Z,58.02
2018-06-11T08:25:34.636Z,61.27
2018-06-11T08:28:03.630Z,60.44
2018-06-11T08:30:31.979Z,59.22
2018-06-11T08:33:00.352Z,59.22
2018-06-11T08:35:28.764Z,57.81
2018-06-11T08:37:57.099Z,56.16
2018-06-11T08:40:25.496Z,54.54
2018-06-11T08:42:53.842Z,56.54
2018-06-11T08:45:22.356Z,51.62
2018-06-11T08:47:50.704Z,53.03
2018-06-11T08:50:19.088Z,51.79
2018-06-11T08:52:47.452Z,51.74
2018-06-11T08:55:15.803Z,51.52
2018-06-11T08:57:44.174Z,51.24
2018-06-11T09:00:12.603Z,50.19
2018-06-11T09:02:40.981Z,46.79
2018-06-11T09:05:09.404Z,50.69
2018-06-11T09:07:37.763Z,49.34
2018-06-11T09:10:06.117Z,50.32
2018-06-11T09:12:34.465Z,49.08
2018-06-11T09:15:03.786Z,48.84
2018-06-11T09:17:32.251Z,50.16
2018-06-11T09:20:00.631Z,50.16
2018-06-11T09:22:29.477Z,47.73
2018-06-11T09:24:57.873Z,48.20
2018-06-11T09:27:26.200Z,49.04
2018-06-11T09:29:54.545Z,48.75
2018-06-11T09:32:22.959Z,48.12
2018-06-11T09:34:51.611Z,47.04
2018-06-11T09:37:19.955Z,47.71
2018-06-11T09:39:48.309Z,47.99
2018-06-11T09:42:16.656Z,45.25
2018-06-11T09:44:45.028Z,45.94
2018-06-11T09:47:13.427Z,46.08
2018-06-11T09:49:41.919Z,46.89
2018-06-11T09:52:10.316Z,46.22
2018-06-11T09:54:38.702Z,46.66
2018-06-11T09:57:07.467Z,45.70
2018-06-11T09:59:35.810Z,44.71
2018-06-11T10:02:04.154Z,41.26
2018-06-11T10:04:32.536Z,42.60
2018-06-11T10:07:00.915Z,42.00
2018-06-11T10:09:29.401Z,41.95
2018-06-11T10:11:57.796Z,42.98
2018-06-11T10:14:26.165Z,43.94
2018-06-11T10:16:54.544Z,43.34
2018-06-11T10:19:22.911Z,41.26
2018-06-11T10:21:51.302Z,42.84
2018-06-11T10:24:19.651Z,41.02
2018-06-11T10:26:48.056Z,42.41
2018-06-11T10:29:16.442Z,42.16
2018-06-11T10:31:44.828Z,41.86
2018-06-11T10:34:13.987Z,41.13
2018-06-11T10:36:42.726Z,42.12
2018-06-11T10:39:11.233Z,40.84
2018-06-11T10:41:39.589Z,38.88
2018-06-11T10:44:07.959Z,37.71
2018-06-11T10:46:36.320Z,38.12
2018-06-11T10:49:04.763Z,39.79
2018-06-11T10:51:33.149Z,39.14
2018-06-11T10:54:01.565Z,39.80
2018-06-11T10:56:29.952Z,39.25
2018-06-11T10:58:58.311Z,40.47
2018-06-11T11:01:26.695Z,39.67
2018-06-11T11:03:55.051Z,39.76
2018-06-11T11:06:23.530Z,40.58
2018-06-11T11:08:52.065Z,41.58
2018-06-11T11:11:20.517Z,42.02
2018-06-11T11:13:48.968Z,41.81
2018-06-11T11:16:17.413Z,42.82
2018-06-11T11:18:45.801Z,42.37
2018-06-11T11:21:14.412Z,43.08
2018-06-11T11:23:43.482Z,43.81
2018-06-11T11:26:12.367Z,43.80
2018-06-11T11:28:40.873Z,44.03
2018-06-11T11:31:09.280Z,43.49
2018-06-11T11:33:37.727Z,43.75
2018-06-11T11:36:06.127Z,43.68
2018-06-11T11:38:34.488Z,44.43
2018-06-11T11:41:02.913Z,45.09
2018-06-11T11:43:31.369Z,46.46
2018-06-11T11:45:59.743Z,45.08
2018-06-11T11:48:28.109Z,46.12
2018-06-11T11:50:56.477Z,46.41
2018-06-11T11:53:24.847Z,46.27
2018-06-11T11:55:53.199Z,46.26
2018-06-11T11:58:21.570Z,47.49
2018-06-11T12:00:49.971Z,46.47
2018-06-11T12:03:18.397Z,46.55
2018-06-11T12:05:46.781Z,46.87
2018-06-11T12:08:15.126Z,47.54
2018-06-11T12:10:43.520Z,48.09
2018-06-11T12:13:11.891Z,47.30
2018-06-11T12:15:40.357Z,47.83
2018-06-11T12:18:08.735Z,47.62
2018-06-11T12:20:37.107Z,47.78
2018-06-11T12:23:05.529Z,47.34
2018-06-11T12:25:33.945Z,48.15
2018-06-11T12:28:02.677Z,47.66
2018-06-11T12:30:31.071Z,46.70
2018-06-11T12:32:59.461Z,48.11
2018-06-11T12:35:27.899Z,47.62
2018-06-11T12:37:56.298Z,48.03
2018-06-11T12:40:24.717Z,47.57
2018-06-11T12:42:53.092Z,47.87
2018-06-11T12:45:21.545Z,48.42
2018-06-11T12:47:49.896Z,48.17
2018-06-11T12:50:18.300Z,48.32
2018-06-11T12:52:46.730Z,47.92
2018-06-11T12:55:15.113Z,47.92
2018-06-11T12:57:43.503Z,48.06
2018-06-11T13:00:11.866Z,47.47
2018-06-11T13:02:40.211Z,46.94
2018-06-11T13:05:08.604Z,47.16
2018-06-11T13:07:36.977Z,46.43
2018-06-11T13:10:05.329Z,45.50
2018-06-11T13:12:33.697Z,45.96
2018-06-11T13:15:02.078Z,46.71
2018-06-11T13:17:30.559Z,46.00
2018-06-11T13:19:59.004Z,46.20
2018-06-11T13:22:27.428Z,46.52
2018-06-11T13:24:55.938Z,46.33
2018-06-11T13:27:24.308Z,44.55
2018-06-11T13:29:52.689Z,44.30
2018-06-11T13:32:21.240Z,43.45
2018-06-11T13:34:49.720Z,43.66
2018-06-11T13:37:18.100Z,42.73
2018-06-11T13:39:46.580Z,43.38
2018-06-11T13:42:15.000Z,43.80
2018-06-11T13:44:43.466Z,43.76
2018-06-11T13:47:11.956Z,42.27
2018-06-11T13:49:40.400Z,42.89
2018-06-11T13:52:08.748Z,43.01
2018-06-11T13:54:37.122Z,41.53
2018-06-11T13:57:05.603Z,41.53
2018-06-11T13:59:33.926Z,41.74
2018-06-11T14:02:02.269Z,42.63
2018-06-11T14:04:30.633Z,42.56
2018-06-11T14:06:59.089Z,42.00
2018-06-11T14:09:27.520Z,42.78
2018-06-11T14:11:55.982Z,42.21
2018-06-11T14:14:24.402Z,42.97
2018-06-11T14:16:52.898Z,42.55
2018-06-11T14:19:21.417Z,42.21
2018-06-11T14:21:49.822Z,42.67
2018-06-11T14:24:18.229Z,42.64
2018-06-11T14:26:46.677Z,42.16
2018-06-11T14:29:15.945Z,42.55
2018-06-11T14:31:44.418Z,41.83
2018-06-11T14:34:12.841Z,41.12
2018-06-11T14:36:41.204Z,41.10
2018-06-11T14:39:09.799Z,42.45
2018-06-11T14:41:38.192Z,42.03
2018-06-11T14:44:06.562Z,41.44
2018-06-11T14:46:35.033Z,42.49
2018-06-11T14:49:03.445Z,41.27
2018-06-11T14:51:31.791Z,41.80
2018-06-11T14:54:00.175Z,41.08
2018-06-11T14:56:28.615Z,41.88
2018-06-11T14:58:56.983Z,42.45
2018-06-11T15:01:25.348Z,42.19
2018-06-11T15:03:53.799Z,41.97
2018-06-11T15:06:22.170Z,41.70
2018-06-11T15:08:50.523Z,42.36
2018-06-11T15:11:18.875Z,41.45
2018-06-11T15:13:47.263Z,41.30
2018-06-11T15:16:15.658Z,42.08
2018-06-11T15:18:44.021Z,42.09
2018-06-11T15:21:12.416Z,41.18
2018-06-11T15:23:40.823Z,42.32
2018-06-11T15:26:09.224Z,41.96
2018-06-11T15:28:37.588Z,41.79
2018-06-11T15:31:05.930Z,42.18
2018-06-11T15:33:34.259Z,41.63
2018-06-11T15:36:02.620Z,41.21
2018-06-11T15:38:30.991Z,41.32
2018-06-11T15:40:59.369Z,42.11
2018-06-11T15:43:27.723Z,41.99
2018-06-11T15:45:56.104Z,42.04
2018-06-11T15:48:24.516Z,41.64
2018-06-11T15:50:53.027Z,41.18
2018-06-11T15:53:22.511Z,41.27
2018-06-11T15:55:50.921Z,41.72
2018-06-11T15:58:19.327Z,41.57
2018-06-11T16:00:47.794Z,40.96
2018-06-11T16:03:16.277Z,40.38
2018-06-11T16:05:44.645Z,41.37
2018-06-11T16:08:13.020Z,40.86
2018-06-11T16:10:41.399Z,39.79
2018-06-11T16:13:09.787Z,39.64
2018-06-11T16:15:38.202Z,39.88
2018-06-11T16:18:06.578Z,40.21
2018-06-11T16:20:34.944Z,40.35
2018-06-11T16:23:03.326Z,40.71
2018-06-11T16:25:31.782Z,39.93
2018-06-11T16:28:00.151Z,40.49
2018-06-11T16:30:28.506Z,40.67
2018-06-11T16:32:56.951Z,40.31
2018-06-11T16:35:25.376Z,40.95
2018-06-11T16:37:53.717Z,40.56
2018-06-11T16:40:22.072Z,41.39
2018-06-11T16:42:50.588Z,40.66
2018-06-11T16:45:18.988Z,40.70
2018-06-11T16:47:47.390Z,41.37
2018-06-11T16:50:15.754Z,41.17
2018-06-11T16:52:44.147Z,41.23
2018-06-11T16:55:12.623Z,41.30
2018-06-11T16:57:41.051Z,41.55
2018-06-11T17:00:09.529Z,41.41
2018-06-11T17:02:38.022Z,41.63
2018-06-11T17:05:06.871Z,41.69
2018-06-11T17:07:35.447Z,42.20
2018-06-11T17:10:03.908Z,42.04
2018-06-11T17:12:32.337Z,41.93
2018-06-11T17:15:00.850Z,41.90
2018-06-11T17:17:29.347Z,42.21
2018-06-11T17:19:57.814Z,41.94
2018-06-11T17:22:26.278Z,41.83
2018-06-11T17:24:54.898Z,41.77
2018-06-11T17:27:23.323Z,41.83
2018-06-11T17:29:51.758Z,42.02
2018-06-11T17:32:20.155Z,41.61
2018-06-11T17:34:48.620Z,41.94
2018-06-11T17:37:17.054Z,41.83
2018-06-11T17:39:45.478Z,42.86
2018-06-11T17:42:13.979Z,43.67
2018-06-11T17:44:42.400Z,43.45
2018-06-11T17:47:10.965Z,43.42
2018-06-11T17:49:39.543Z,43.82
2018-06-11T17:52:08.103Z,43.75
2018-06-11T17:54:36.547Z,43.44
2018-06-11T17:57:05.059Z,43.69
2018-06-11T17:59:33.491Z,43.34
2018-06-11T18:02:01.878Z,44.23
2018-06-11T18:04:30.287Z,44.50
2018-06-11T18:06:58.632Z,44.00
2018-06-11T18:09:27.022Z,44.49
2018-06-11T18:11:55.441Z,44.13
2018-06-11T18:14:23.773Z,44.07
2018-06-11T18:16:52.135Z,44.79
2018-06-11T18:19:20.488Z,44.57
2018-06-11T18:21:48.847Z,44.81
2018-06-11T18:24:17.202Z,44.58
2018-06-11T18:26:45.636Z,45.05
2018-06-11T18:29:14.052Z,44.38
2018-06-11T18:31:42.493Z,44.99
2018-06-11T18:34:10.868Z,45.03
2018-06-11T18:36:39.215Z,44.32
2018-06-11T18:39:08.985Z,44.83
2018-06-11T18:41:37.555Z,45.13
2018-06-11T18:44:06.052Z,44.36
2018-06-11T18:46:34.595Z,44.54
2018-06-11T18:49:03.015Z,44.46
2018-06-11T18:51:31.395Z,45.03
2018-06-11T18:54:00.400Z,44.95
2018-06-11T18:56:28.807Z,44.31
2018-06-11T18:58:57.190Z,44.91
2018-06-11T19:01:25.556Z,45.12
2018-06-11T19:03:53.928Z,45.24
2018-06-11T19:06:22.397Z,45.08
2018-06-11T19:08:50.771Z,44.87
2018-06-11T19:11:19.156Z,45.24
2018-06-11T19:13:47.579Z,45.31
2018-06-11T19:16:15.987Z,44.49
2018-06-11T19:18:44.397Z,44.56
2018-06-11T19:21:12.815Z,45.20
2018-06-11T19:23:41.188Z,44.88
2018-06-11T19:26:09.603Z,45.53
2018-06-11T19:28:45.706Z,45.23
2018-06-11T19:31:18.440Z,45.37
2018-06-11T19:33:48.669Z,45.21
2018-06-11T19:36:17.555Z,46.21
2018-06-11T19:38:51.356Z,45.68
2018-06-11T19:41:19.874Z,45.42
2018-06-11T19:43:48.280Z,46.24
2018-06-11T19:46:23.581Z,45.49
2018-06-11T19:48:59.259Z,45.65
2018-06-11T19:51:34.904Z,45.87
2018-06-11T19:54:07.844Z,45.81
2018-06-11T19:56:38.964Z,46.22
2018-06-11T19:59:07.715Z,46.34
2018-06-11T20:01:39.096Z,46.23
2018-06-11T20:04:11.374Z,47.03
2018-06-11T20:06:47.008Z,46.46
2018-06-11T20:09:16.084Z,47.15
2018-06-11T20:11:50.284Z,47.40
2018-06-11T20:14:18.756Z,46.87
2018-06-11T20:16:47.138Z,47.38
2018-06-11T20:22:02.021Z,47.18
2018-06-11T20:25:06.034Z,47.92
2018-06-11T20:30:02.086Z,48.26
2018-06-11T20:32:31.325Z,47.88
2018-06-11T20:35:00.131Z,48.68
2018-06-11T20:37:28.667Z,48.11
2018-06-11T20:39:57.118Z,48.16
2018-06-11T20:42:25.517Z,48.33
2018-06-11T20:44:54.640Z,48.54
2018-06-11T20:47:23.073Z,48.94
2018-06-11T20:49:51.555Z,48.86
2018-06-11T20:52:20.065Z,48.26
2018-06-11T20:54:48.632Z,49.15
2018-06-11T20:57:17.519Z,48.83
2018-06-11T20:59:46.025Z,49.03
2018-06-11T21:02:14.998Z,48.77
2018-06-11T21:04:43.468Z,49.21
2018-06-11T21:07:12.298Z,49.06
2018-06-11T21:09:40.732Z,49.65
2018-06-11T21:12:09.138Z,50.11
2018-06-11T21:14:38.285Z,49.63
2018-06-11T21:17:06.766Z,50.54
2018-06-11T21:19:35.397Z,50.27
2018-06-11T21:22:04.089Z,50.64
2018-06-11T21:24:32.493Z,50.54
2018-06-11T21:27:00.939Z,50.01
2018-06-11T21:29:29.717Z,49.53
2018-06-11T21:31:58.528Z,50.31
2018-06-11T21:34:26.993Z,50.76
2018-06-11T21:36:55.756Z,50.13
2018-06-11T21:39:24.263Z,51.17
2018-06-11T21:41:53.251Z,50.56
2018-06-11T21:44:21.752Z,50.37
2018-06-11T21:46:50.233Z,50.04
2018-06-11T21:49:18.633Z,50.71
2018-06-11T21:51:47.027Z,51.42
2018-06-11T21:54:17.002Z,51.38
2018-06-11T21:56:53.685Z,52.14
2018-06-11T21:59:23.511Z,51.58
2018-06-11T22:01:53.035Z,51.33
2018-06-11T22:04:21.626Z,52.34
2018-06-11T22:06:50.053Z,52.59
2018-06-11T22:09:18.464Z,52.51
2018-06-11T22:11:48.156Z,52.28
2018-06-11T22:14:21.126Z,53.80
2018-06-11T22:16:50.028Z,52.66
2018-06-11T22:19:18.515Z,54.90
2018-06-11T22:21:46.978Z,52.69
2018-06-11T22:24:15.364Z,53.39
2018-06-11T22:26:44.169Z,52.87
2018-06-11T22:29:12.629Z,52.84
2018-06-11T22:31:41.064Z,53.70
2018-06-11T22:34:09.470Z,54.18
2018-06-11T22:36:37.889Z,53.79
2018-06-11T22:39:07.928Z,53.35
2018-06-11T22:41:36.528Z,52.91
2018-06-11T22:44:05.047Z,54.07
2018-06-11T22:46:33.465Z,54.48
2018-06-11T22:49:01.967Z,54.63
2018-06-11T22:51:30.635Z,55.43
2018-06-11T22:53:59.158Z,54.08
2018-06-11T22:56:27.681Z,53.77
2018-06-11T22:58:56.190Z,55.41
2018-06-11T23:01:24.630Z,54.69
2018-06-11T23:03:53.070Z,55.29
2018-06-11T23:06:21.600Z,55.40
2018-06-11T23:08:50.017Z,54.83
2018-06-11T23:11:18.450Z,54.64
2018-06-11T23:13:46.946Z,55.14
2018-06-11T23:16:15.491Z,55.42
2018-06-11T23:18:44.053Z,55.02
2018-06-11T23:21:12.503Z,55.45
2018-06-11T23:23:41.122Z,55.44
2018-06-11T23:26:09.653Z,56.71
2018-06-11T23:28:38.164Z,55.83
2018-06-11T23:31:06.634Z,56.04
2018-06-11T23:33:35.129Z,56.15
2018-06-11T23:36:03.648Z,56.30
2018-06-11T23:38:32.093Z,56.24
2018-06-11T23:41:00.532Z,57.59
2018-06-11T23:43:28.968Z,56.03
2018-06-11T23:45:57.499Z,56.76
2018-06-11T23:48:25.968Z,56.31
2018-06-11T23:50:54.419Z,56.54
2018-06-11T23:53:22.873Z,57.14
2018-06-11T23:55:51.380Z,57.00
2018-06-11T23:58:19.912Z,56.85
